Time;durP1;ratioP1;P1;durP2;ratioP2;P2;SDS_P1;SDS_P2;PMS_P1;PMS_P2;Temp;Humidity;BMP_temperature;BMP_pressure;BME280_temperature;BME280_humidity;BME280_pressure;Samples;Min_cycle;Max_cycle;Signal;HPM_P1;HPM_P2
2021/11/19 00:01:29;;;;;;;;;;;20.60;40.60;;;;;;490966;240;1061;-47
2021/11/19 00:03:31;;;;;;;;;;;20.70;40.60;;;;;;490712;240;2122;-47
2021/11/19 00:05:32;;;;;;;;;;;20.70;40.60;;;;;;490759;240;1063;-47
2021/11/19 00:07:33;;;;;;;;;;;20.70;40.70;;;;;;490752;240;1136;-47
2021/11/19 00:09:35;;;;;;;;;;;20.70;40.70;;;;;;490861;240;1067;-47
2021/11/19 00:11:36;;;;;;;;;;;20.60;40.60;;;;;;490818;240;1147;-47
2021/11/19 00:13:37;;;;;;;;;;;20.70;40.60;;;;;;490679;240;1057;-47
2021/11/19 00:15:39;;;;;;;;;;;20.70;40.60;;;;;;490586;240;1064;-47
2021/11/19 00:17:40;;;;;;;;;;;20.70;40.60;;;;;;490511;241;1226;-47
2021/11/19 00:19:41;;;;;;;;;;;20.70;40.60;;;;;;490701;240;1056;-47
2021/11/19 00:21:43;;;;;;;;;;;20.70;40.60;;;;;;490476;240;1139;-47
2021/11/19 00:23:45;;;;;;;;;;;20.70;40.60;;;;;;490480;241;2181;-47
2021/11/19 00:25:45;;;;;;;;;;;20.70;40.60;;;;;;490605;240;2140;-47
2021/11/19 00:27:47;;;;;;;;;;;20.70;40.50;;;;;;490423;241;1204;-47
2021/11/19 00:29:48;;;;;;;;;;;20.70;40.50;;;;;;491006;240;1043;-47
2021/11/19 00:31:49;;;;;;;;;;;20.70;40.60;;;;;;490559;240;1119;-47
2021/11/19 00:33:51;;;;;;;;;;;20.70;40.70;;;;;;490692;240;1241;-47
2021/11/19 00:35:52;;;;;;;;;;;20.70;40.50;;;;;;490832;240;1113;-46
2021/11/19 00:37:53;;;;;;;;;;;20.70;40.50;;;;;;491006;240;1307;-47
2021/11/19 00:39:55;;;;;;;;;;;20.70;40.60;;;;;;490834;240;1174;-47
2021/11/19 00:41:56;;;;;;;;;;;20.70;40.60;;;;;;490806;240;1297;-47
2021/11/19 00:43:57;;;;;;;;;;;20.70;40.60;;;;;;490764;240;2199;-47
2021/11/19 00:45:58;;;;;;;;;;;20.70;40.60;;;;;;490659;240;1036;-47
2021/11/19 00:48:00;;;;;;;;;;;20.70;40.60;;;;;;490596;240;1076;-47
2021/11/19 00:50:01;;;;;;;;;;;20.70;40.60;;;;;;491016;240;1052;-47
2021/11/19 00:52:02;;;;;;;;;;;20.70;40.50;;;;;;490451;241;1134;-47
2021/11/19 00:54:05;;;;;;;;;;;20.70;40.60;;;;;;490938;240;1106;-47
2021/11/19 00:56:05;;;;;;;;;;;20.70;40.60;;;;;;490958;240;2397;-47
2021/11/19 00:58:06;;;;;;;;;;;20.70;40.60;;;;;;490649;240;1221;-46
2021/11/19 01:00:08;;;;;;;;;;;20.70;40.60;;;;;;490540;241;1107;-46
2021/11/19 01:02:09;;;;;;;;;;;20.70;40.60;;;;;;490649;240;1343;-47
2021/11/19 01:04:10;;;;;;;;;;;20.60;40.60;;;;;;490943;240;2134;-46
2021/11/19 01:06:12;;;;;;;;;;;20.60;40.60;;;;;;490925;240;1372;-47
2021/11/19 01:08:13;;;;;;;;;;;20.70;40.70;;;;;;490939;240;1159;-47
2021/11/19 01:10:14;;;;;;;;;;;20.70;40.60;;;;;;490884;240;1046;-46
2021/11/19 01:12:16;;;;;;;;;;;20.60;40.60;;;;;;490681;240;1316;-47
2021/11/19 01:14:19;;;;;;;;;;;20.70;40.60;;;;;;490747;240;1070;-47
2021/11/19 01:16:19;;;;;;;;;;;20.70;40.60;;;;;;490678;240;2132;-47
2021/11/19 01:18:20;;;;;;;;;;;20.70;40.50;;;;;;490975;240;1085;-47
2021/11/19 01:20:21;;;;;;;;;;;20.70;40.50;;;;;;490816;240;1245;-47
2021/11/19 01:22:23;;;;;;;;;;;20.70;40.50;;;;;;490536;241;1002;-47
2021/11/19 01:24:24;;;;;;;;;;;20.70;40.50;;;;;;490616;241;2209;-47
2021/11/19 01:26:26;;;;;;;;;;;20.60;40.60;;;;;;490998;240;1197;-47
2021/11/19 01:28:27;;;;;;;;;;;20.60;40.60;;;;;;490555;241;2149;-47
2021/11/19 01:30:28;;;;;;;;;;;20.70;40.60;;;;;;491064;240;1104;-47
2021/11/19 01:32:29;;;;;;;;;;;20.60;40.60;;;;;;490990;240;1177;-47
2021/11/19 01:34:30;;;;;;;;;;;20.70;40.60;;;;;;490710;240;1208;-47
2021/11/19 01:36:32;;;;;;;;;;;20.70;40.60;;;;;;490708;240;1216;-47
2021/11/19 01:38:33;;;;;;;;;;;20.60;40.60;;;;;;490563;241;1141;-47
2021/11/19 01:40:34;;;;;;;;;;;20.60;40.60;;;;;;490654;240;1123;-47
2021/11/19 01:42:36;;;;;;;;;;;20.60;40.60;;;;;;490491;241;1206;-47
2021/11/19 01:44:37;;;;;;;;;;;20.70;40.60;;;;;;490875;240;2173;-47
2021/11/19 01:46:38;;;;;;;;;;;20.60;40.60;;;;;;490872;240;1095;-47
2021/11/19 01:48:40;;;;;;;;;;;20.60;40.60;;;;;;490575;241;1061;-46
2021/11/19 01:50:41;;;;;;;;;;;20.60;40.50;;;;;;490593;241;1241;-47
2021/11/19 01:52:42;;;;;;;;;;;20.70;40.60;;;;;;490553;240;1162;-47
2021/11/19 01:54:44;;;;;;;;;;;20.70;40.60;;;;;;490819;240;1000;-46
2021/11/19 01:56:45;;;;;;;;;;;20.60;40.60;;;;;;490597;240;1191;-47
2021/11/19 01:58:47;;;;;;;;;;;20.60;40.60;;;;;;490648;240;1207;-47
2021/11/19 02:00:48;;;;;;;;;;;20.70;40.70;;;;;;490620;240;1148;-47
2021/11/19 02:02:49;;;;;;;;;;;20.70;40.60;;;;;;490766;240;1319;-47
2021/11/19 02:04:51;;;;;;;;;;;20.60;40.60;;;;;;490580;241;2184;-47
2021/11/19 02:06:52;;;;;;;;;;;20.60;40.60;;;;;;490450;240;1142;-47
2021/11/19 02:08:53;;;;;;;;;;;20.70;40.60;;;;;;490832;240;1070;-46
2021/11/19 02:10:55;;;;;;;;;;;20.60;40.50;;;;;;490910;240;1331;-47
2021/11/19 02:12:56;;;;;;;;;;;20.60;40.50;;;;;;490589;241;1224;-47
2021/11/19 02:14:58;;;;;;;;;;;20.60;40.60;;;;;;490892;240;968;-47
2021/11/19 02:16:59;;;;;;;;;;;20.60;40.60;;;;;;490642;240;1220;-47
2021/11/19 02:19:00;;;;;;;;;;;20.60;40.60;;;;;;491034;240;1108;-46
2021/11/19 02:21:02;;;;;;;;;;;20.60;40.60;;;;;;490845;240;1282;-47
2021/11/19 02:23:03;;;;;;;;;;;20.60;40.60;;;;;;490579;241;1244;-47
2021/11/19 02:25:04;;;;;;;;;;;20.60;40.50;;;;;;490609;240;2137;-47
2021/11/19 02:27:06;;;;;;;;;;;20.60;40.60;;;;;;490517;241;1208;-47
2021/11/19 02:29:07;;;;;;;;;;;20.60;40.60;;;;;;490594;240;1182;-47
2021/11/19 02:31:08;;;;;;;;;;;20.60;40.60;;;;;;490605;240;1416;-47
2021/11/19 02:33:10;;;;;;;;;;;20.60;40.70;;;;;;490615;240;1397;-47
2021/11/19 02:35:11;;;;;;;;;;;20.60;40.60;;;;;;490619;241;1080;-47
2021/11/19 02:37:12;;;;;;;;;;;20.60;40.60;;;;;;490586;240;1181;-47
2021/11/19 02:39:13;;;;;;;;;;;20.60;40.70;;;;;;490927;240;1068;-47
2021/11/19 02:41:15;;;;;;;;;;;20.60;40.60;;;;;;490595;241;1350;-47
2021/11/19 02:43:16;;;;;;;;;;;20.60;40.50;;;;;;490840;240;1182;-47
2021/11/19 02:45:17;;;;;;;;;;;20.60;40.60;;;;;;490792;240;2188;-46
2021/11/19 02:47:19;;;;;;;;;;;20.60;40.50;;;;;;490653;240;1400;-47
2021/11/19 02:49:20;;;;;;;;;;;20.60;40.60;;;;;;490800;240;1247;-47
2021/11/19 02:51:21;;;;;;;;;;;20.60;40.60;;;;;;490806;240;1352;-47
2021/11/19 02:53:23;;;;;;;;;;;20.60;40.60;;;;;;490538;240;1535;-47
2021/11/19 02:55:24;;;;;;;;;;;20.60;40.60;;;;;;490529;241;1171;-47
2021/11/19 02:57:26;;;;;;;;;;;20.60;40.60;;;;;;490513;240;1615;-47
2021/11/19 02:59:28;;;;;;;;;;;20.60;40.70;;;;;;490538;241;1233;-47
2021/11/19 03:01:29;;;;;;;;;;;20.60;40.60;;;;;;490778;240;1608;-47
2021/11/19 03:03:30;;;;;;;;;;;20.60;40.60;;;;;;490951;240;1157;-46
2021/11/19 03:05:32;;;;;;;;;;;20.60;40.60;;;;;;490631;240;2117;-47
2021/11/19 03:07:33;;;;;;;;;;;20.60;40.60;;;;;;490481;240;1276;-47
2021/11/19 03:09:34;;;;;;;;;;;20.60;40.60;;;;;;490609;241;1047;-47
2021/11/19 03:11:35;;;;;;;;;;;20.70;40.60;;;;;;490610;240;1343;-46
2021/11/19 03:13:38;;;;;;;;;;;20.60;40.50;;;;;;490822;240;1150;-46
2021/11/19 03:15:38;;;;;;;;;;;20.60;40.70;;;;;;490814;240;2210;-47
2021/11/19 03:17:39;;;;;;;;;;;20.60;40.60;;;;;;490425;241;1159;-46
2021/11/19 03:19:41;;;;;;;;;;;20.60;40.60;;;;;;490562;241;1323;-47
2021/11/19 03:21:42;;;;;;;;;;;20.60;40.70;;;;;;490526;241;1162;-47
2021/11/19 03:23:43;;;;;;;;;;;20.50;40.70;;;;;;491008;240;988;-47
2021/11/19 03:25:45;;;;;;;;;;;20.60;40.70;;;;;;490592;240;2197;-47
2021/11/19 03:27:46;;;;;;;;;;;20.60;40.70;;;;;;490829;240;1018;-47
2021/11/19 03:29:47;;;;;;;;;;;20.60;40.70;;;;;;490574;241;1279;-47
2021/11/19 03:31:49;;;;;;;;;;;20.60;40.60;;;;;;490866;240;1090;-47
2021/11/19 03:33:50;;;;;;;;;;;20.60;40.60;;;;;;490559;241;1048;-47
2021/11/19 03:35:52;;;;;;;;;;;20.60;40.60;;;;;;490546;241;1291;-47
2021/11/19 03:37:53;;;;;;;;;;;20.60;40.60;;;;;;491012;240;1107;-46
2021/11/19 03:39:54;;;;;;;;;;;20.60;40.70;;;;;;490795;240;1273;-47
2021/11/19 03:41:56;;;;;;;;;;;20.60;40.60;;;;;;490695;240;1300;-47
2021/11/19 03:43:57;;;;;;;;;;;20.60;40.60;;;;;;490847;240;1217;-46
2021/11/19 03:45:59;;;;;;;;;;;20.60;40.50;;;;;;490943;240;2196;-47
2021/11/19 03:48:00;;;;;;;;;;;20.50;40.50;;;;;;490791;240;1184;-46
2021/11/19 03:50:01;;;;;;;;;;;20.60;40.60;;;;;;490568;241;1071;-47
2021/11/19 03:52:03;;;;;;;;;;;20.60;40.60;;;;;;490586;240;1247;-47
2021/11/19 03:54:04;;;;;;;;;;;20.60;40.70;;;;;;490595;241;1038;-46
2021/11/19 03:56:06;;;;;;;;;;;20.50;40.70;;;;;;491010;240;1128;-46
2021/11/19 03:58:07;;;;;;;;;;;20.60;40.60;;;;;;490921;240;1127;-47
2021/11/19 04:00:08;;;;;;;;;;;20.60;40.60;;;;;;490564;241;1242;-46
2021/11/19 04:02:10;;;;;;;;;;;20.60;40.60;;;;;;490630;240;1280;-47
2021/11/19 04:04:11;;;;;;;;;;;20.60;40.60;;;;;;490959;240;1072;-47
2021/11/19 04:06:12;;;;;;;;;;;20.60;40.60;;;;;;490881;240;2379;-47
2021/11/19 04:08:14;;;;;;;;;;;20.60;40.60;;;;;;490525;241;1064;-46
2021/11/19 04:10:15;;;;;;;;;;;20.60;40.60;;;;;;490579;241;1054;-46
2021/11/19 04:12:16;;;;;;;;;;;20.60;40.50;;;;;;490606;240;1325;-46
2021/11/19 04:14:18;;;;;;;;;;;20.60;40.60;;;;;;490609;241;1178;-47
2021/11/19 04:16:19;;;;;;;;;;;20.60;40.50;;;;;;490944;240;1276;-47
2021/11/19 04:18:20;;;;;;;;;;;20.60;40.50;;;;;;490613;240;1059;-47
2021/11/19 04:20:22;;;;;;;;;;;20.60;40.70;;;;;;490645;240;1048;-47
2021/11/19 04:22:23;;;;;;;;;;;20.60;40.60;;;;;;490454;241;1357;-47
2021/11/19 04:24:24;;;;;;;;;;;20.60;40.60;;;;;;490634;240;1264;-47
2021/11/19 04:26:26;;;;;;;;;;;20.60;40.60;;;;;;490944;240;2184;-47
2021/11/19 04:28:27;;;;;;;;;;;20.60;40.60;;;;;;490566;240;2537;-47
2021/11/19 04:30:28;;;;;;;;;;;20.60;40.60;;;;;;490532;241;1048;-46
2021/11/19 04:32:29;;;;;;;;;;;20.60;40.60;;;;;;490532;240;1194;-47
2021/11/19 04:34:31;;;;;;;;;;;20.50;40.60;;;;;;490844;240;1569;-47
2021/11/19 04:36:32;;;;;;;;;;;20.50;40.60;;;;;;490600;240;1348;-47
2021/11/19 04:38:33;;;;;;;;;;;20.60;40.70;;;;;;490709;240;1218;-47
2021/11/19 04:40:35;;;;;;;;;;;20.60;40.70;;;;;;490992;240;1124;-47
2021/11/19 04:42:36;;;;;;;;;;;20.50;40.70;;;;;;490530;240;2320;-47
2021/11/19 04:44:37;;;;;;;;;;;20.60;40.60;;;;;;490777;240;1303;-47
2021/11/19 04:46:39;;;;;;;;;;;20.60;40.60;;;;;;490493;240;2113;-47
2021/11/19 04:48:40;;;;;;;;;;;20.60;40.60;;;;;;490679;240;1071;-46
2021/11/19 04:50:41;;;;;;;;;;;20.60;40.50;;;;;;490547;241;1324;-47
2021/11/19 04:52:43;;;;;;;;;;;20.60;40.60;;;;;;490595;240;1174;-47
2021/11/19 04:54:44;;;;;;;;;;;20.60;40.60;;;;;;491018;240;1028;-47
2021/11/19 04:56:45;;;;;;;;;;;20.60;40.60;;;;;;490432;241;1689;-47
2021/11/19 04:58:47;;;;;;;;;;;20.50;40.50;;;;;;490491;241;1068;-47
2021/11/19 05:00:48;;;;;;;;;;;20.60;40.60;;;;;;490571;240;1341;-46
2021/11/19 05:02:49;;;;;;;;;;;20.50;40.60;;;;;;490477;241;1143;-46
2021/11/19 05:04:51;;;;;;;;;;;20.50;40.60;;;;;;490527;240;1029;-47
2021/11/19 05:06:52;;;;;;;;;;;20.60;40.60;;;;;;490810;240;1116;-47
2021/11/19 05:08:54;;;;;;;;;;;20.60;40.60;;;;;;490912;240;990;-47
2021/11/19 05:10:57;;;;;;;;;;;20.60;40.60;;;;;;490899;240;1050;-47
2021/11/19 05:12:58;;;;;;;;;;;20.60;40.60;;;;;;490492;241;1075;-47
2021/11/19 05:14:59;;;;;;;;;;;20.50;40.60;;;;;;490746;240;1184;-47
2021/11/19 05:17:00;;;;;;;;;;;20.50;40.60;;;;;;490617;240;1144;-46
2021/11/19 05:19:02;;;;;;;;;;;20.50;40.60;;;;;;490463;241;1057;-46
2021/11/19 05:21:03;;;;;;;;;;;20.50;40.60;;;;;;490935;240;1136;-47
2021/11/19 05:23:04;;;;;;;;;;;20.60;40.60;;;;;;490801;240;1170;-47
2021/11/19 05:25:05;;;;;;;;;;;20.60;40.60;;;;;;490573;241;2252;-46
2021/11/19 05:27:07;;;;;;;;;;;20.60;40.60;;;;;;490651;240;1328;-47
2021/11/19 05:29:08;;;;;;;;;;;20.60;40.60;;;;;;490599;240;1182;-46
2021/11/19 05:31:09;;;;;;;;;;;20.60;40.70;;;;;;490581;240;1133;-46
2021/11/19 05:33:11;;;;;;;;;;;20.50;40.60;;;;;;490677;240;1192;-47
2021/11/19 05:35:12;;;;;;;;;;;20.50;40.60;;;;;;490464;241;1064;-47
2021/11/19 05:37:13;;;;;;;;;;;20.50;40.60;;;;;;490575;240;1159;-47
2021/11/19 05:39:15;;;;;;;;;;;20.50;40.60;;;;;;490709;240;1048;-47
2021/11/19 05:41:16;;;;;;;;;;;20.60;40.60;;;;;;490466;240;1400;-46
2021/11/19 05:43:17;;;;;;;;;;;20.60;40.60;;;;;;490364;240;1109;-46
2021/11/19 05:45:19;;;;;;;;;;;20.60;40.60;;;;;;490392;241;2396;-47
2021/11/19 05:47:20;;;;;;;;;;;20.50;40.60;;;;;;490242;241;1128;-47
2021/11/19 05:49:21;;;;;;;;;;;20.60;40.50;;;;;;490444;240;1228;-47
2021/11/19 05:51:23;;;;;;;;;;;20.60;40.60;;;;;;490678;240;1135;-47
2021/11/19 05:53:24;;;;;;;;;;;20.60;40.50;;;;;;490422;241;1073;-47
2021/11/19 05:55:25;;;;;;;;;;;20.50;40.60;;;;;;490462;241;1097;-47
2021/11/19 05:57:27;;;;;;;;;;;20.60;40.60;;;;;;490666;240;1344;-47
2021/11/19 05:59:28;;;;;;;;;;;20.50;40.50;;;;;;490411;241;1092;-47
2021/11/19 06:01:29;;;;;;;;;;;20.60;40.60;;;;;;490334;241;1488;-47
2021/11/19 06:03:30;;;;;;;;;;;20.60;40.60;;;;;;490352;241;1043;-46
2021/11/19 06:05:32;;;;;;;;;;;20.50;40.60;;;;;;490485;240;2188;-47
2021/11/19 06:07:33;;;;;;;;;;;20.60;40.60;;;;;;490496;240;1243;-46
2021/11/19 06:09:37;;;;;;;;;;;20.50;40.50;;;;;;490394;241;1134;-47
2021/11/19 06:11:36;;;;;;;;;;;20.60;40.60;;;;;;490434;240;2077;-47
2021/11/19 06:13:37;;;;;;;;;;;20.60;40.60;;;;;;490713;240;1221;-47
2021/11/19 06:15:38;;;;;;;;;;;20.50;40.60;;;;;;490365;241;1178;-47
2021/11/19 06:17:40;;;;;;;;;;;20.60;40.60;;;;;;490518;240;1400;-47
2021/11/19 06:19:41;;;;;;;;;;;20.50;40.50;;;;;;490460;240;1224;-47
2021/11/19 06:21:42;;;;;;;;;;;20.50;40.60;;;;;;490370;240;1506;-47
2021/11/19 06:23:44;;;;;;;;;;;20.50;40.60;;;;;;490409;240;1054;-47
2021/11/19 06:25:45;;;;;;;;;;;20.60;40.60;;;;;;490381;241;2177;-47
2021/11/19 06:27:46;;;;;;;;;;;20.60;40.60;;;;;;490384;240;1158;-47
2021/11/19 06:29:48;;;;;;;;;;;20.60;40.60;;;;;;490523;240;1397;-47
2021/11/19 06:31:49;;;;;;;;;;;20.60;40.60;;;;;;490327;240;1323;-47
2021/11/19 06:33:50;;;;;;;;;;;20.50;40.50;;;;;;490376;240;1050;-47
2021/11/19 06:35:52;;;;;;;;;;;20.60;40.60;;;;;;490465;240;1121;-46
2021/11/19 06:37:53;;;;;;;;;;;20.50;40.50;;;;;;490209;241;1182;-47
2021/11/19 06:39:55;;;;;;;;;;;20.50;40.60;;;;;;490263;241;1051;-47
2021/11/19 06:41:56;;;;;;;;;;;20.60;40.60;;;;;;490203;241;1224;-47
2021/11/19 06:43:57;;;;;;;;;;;20.60;40.60;;;;;;490398;240;1033;-47
2021/11/19 06:45:59;;;;;;;;;;;20.60;40.60;;;;;;490271;241;2188;-46
2021/11/19 06:48:03;;;;;;;;;;;20.60;40.50;;;;;;490383;240;1208;-47
2021/11/19 06:50:01;;;;;;;;;;;20.60;40.60;;;;;;490380;241;2260;-46
2021/11/19 06:52:02;;;;;;;;;;;20.60;40.60;;;;;;490194;241;1161;-47
2021/11/19 06:54:04;;;;;;;;;;;20.60;40.60;;;;;;490341;240;1118;-47
2021/11/19 06:56:05;;;;;;;;;;;20.50;40.60;;;;;;490096;240;1217;-47
2021/11/19 06:58:06;;;;;;;;;;;20.60;40.60;;;;;;490097;240;1208;-47
2021/11/19 07:00:08;;;;;;;;;;;20.60;40.50;;;;;;489969;241;1213;-47
2021/11/19 07:02:09;;;;;;;;;;;20.60;40.50;;;;;;489933;240;1270;-46
2021/11/19 07:04:10;;;;;;;;;;;20.60;40.60;;;;;;489996;240;1153;-47
2021/11/19 07:06:12;;;;;;;;;;;20.50;40.60;;;;;;490112;240;2189;-47
2021/11/19 07:08:13;;;;;;;;;;;20.60;40.60;;;;;;490110;240;1147;-46
2021/11/19 07:10:15;;;;;;;;;;;20.50;40.60;;;;;;490154;240;1215;-47
2021/11/19 07:12:16;;;;;;;;;;;20.60;40.60;;;;;;490168;240;1237;-47
2021/11/19 07:14:17;;;;;;;;;;;20.50;40.60;;;;;;490003;240;1097;-47
2021/11/19 07:16:19;;;;;;;;;;;20.60;40.60;;;;;;490074;240;1602;-46
2021/11/19 07:18:20;;;;;;;;;;;20.60;40.60;;;;;;490011;241;1212;-46
2021/11/19 07:20:21;;;;;;;;;;;20.60;40.50;;;;;;490146;240;1108;-47
2021/11/19 07:22:23;;;;;;;;;;;20.60;40.50;;;;;;489935;240;1187;-46
2021/11/19 07:24:24;;;;;;;;;;;20.60;40.60;;;;;;490065;240;1085;-47
2021/11/19 07:26:25;;;;;;;;;;;20.60;40.50;;;;;;490043;241;2212;-47
2021/11/19 07:28:27;;;;;;;;;;;20.60;40.40;;;;;;490024;241;1063;-47
2021/11/19 07:30:28;;;;;;;;;;;20.60;40.40;;;;;;490077;241;1259;-47
2021/11/19 07:32:29;;;;;;;;;;;20.60;40.40;;;;;;490104;240;1216;-46
2021/11/19 07:34:31;;;;;;;;;;;20.60;40.40;;;;;;490198;240;1060;-47
2021/11/19 07:36:32;;;;;;;;;;;20.60;40.40;;;;;;490054;240;1704;-46
2021/11/19 07:38:33;;;;;;;;;;;20.60;40.40;;;;;;490030;240;1213;-47
2021/11/19 07:40:35;;;;;;;;;;;20.60;40.40;;;;;;490004;240;1169;-47
2021/11/19 07:42:36;;;;;;;;;;;20.60;40.40;;;;;;489900;241;1189;-47
2021/11/19 07:44:37;;;;;;;;;;;20.60;40.30;;;;;;489937;240;1131;-47
2021/11/19 07:46:39;;;;;;;;;;;20.60;40.40;;;;;;489960;240;2187;-47
2021/11/19 07:48:40;;;;;;;;;;;20.60;40.30;;;;;;490100;240;2035;-46
2021/11/19 07:50:41;;;;;;;;;;;20.60;40.30;;;;;;489863;241;1160;-47
2021/11/19 07:52:42;;;;;;;;;;;20.60;40.40;;;;;;489936;241;1216;-47
2021/11/19 07:54:44;;;;;;;;;;;20.60;40.30;;;;;;490057;241;1046;-47
2021/11/19 07:56:46;;;;;;;;;;;20.60;40.30;;;;;;489950;241;1400;-47
2021/11/19 07:58:46;;;;;;;;;;;20.60;40.30;;;;;;490121;240;2134;-47
2021/11/19 08:00:48;;;;;;;;;;;20.60;40.30;;;;;;490041;240;1260;-47
2021/11/19 08:02:49;;;;;;;;;;;20.60;40.30;;;;;;489955;240;1189;-47
2021/11/19 08:04:51;;;;;;;;;;;20.60;40.30;;;;;;489915;241;1091;-47
2021/11/19 08:06:53;;;;;;;;;;;20.60;40.20;;;;;;490013;240;2188;-47
2021/11/19 08:08:54;;;;;;;;;;;20.70;40.20;;;;;;489882;241;1068;-47
2021/11/19 08:10:55;;;;;;;;;;;20.70;40.20;;;;;;489910;241;1340;-47
2021/11/19 08:12:56;;;;;;;;;;;20.70;40.10;;;;;;490031;241;1236;-47
2021/11/19 08:14:58;;;;;;;;;;;20.70;40.10;;;;;;489984;240;1224;-47
2021/11/19 08:16:59;;;;;;;;;;;20.70;40.10;;;;;;489671;241;1493;-47
2021/11/19 08:19:00;;;;;;;;;;;20.60;40.20;;;;;;489859;240;1099;-47
2021/11/19 08:21:02;;;;;;;;;;;20.70;40.20;;;;;;489788;240;1584;-46
2021/11/19 08:23:03;;;;;;;;;;;20.70;40.20;;;;;;490386;240;1690;-47
2021/11/19 08:25:04;;;;;;;;;;;20.70;40.20;;;;;;489921;240;1203;-47
2021/11/19 08:27:06;;;;;;;;;;;20.60;40.30;;;;;;490078;240;2176;-47
2021/11/19 08:29:07;;;;;;;;;;;20.60;40.30;;;;;;489972;241;1110;-46
2021/11/19 08:31:08;;;;;;;;;;;20.60;40.30;;;;;;490049;240;1198;-46
2021/11/19 08:33:10;;;;;;;;;;;20.60;40.40;;;;;;489954;241;1159;-46
2021/11/19 08:35:11;;;;;;;;;;;20.50;40.50;;;;;;489879;241;1053;-47
2021/11/19 08:37:12;;;;;;;;;;;20.50;40.60;;;;;;489918;241;1260;-47
2021/11/19 08:39:13;;;;;;;;;;;20.50;40.60;;;;;;489748;240;1053;-47
2021/11/19 08:41:15;;;;;;;;;;;20.50;40.60;;;;;;489820;240;1302;-46
2021/11/19 08:43:16;;;;;;;;;;;20.50;40.60;;;;;;489867;241;1226;-47
2021/11/19 08:45:18;;;;;;;;;;;20.50;40.70;;;;;;489792;240;1341;-47
2021/11/19 08:47:19;;;;;;;;;;;20.40;40.70;;;;;;490070;240;2209;-47
2021/11/19 08:49:20;;;;;;;;;;;20.50;40.70;;;;;;489901;240;1094;-47
2021/11/19 08:51:21;;;;;;;;;;;20.40;40.70;;;;;;489887;240;1232;-47
2021/11/19 08:53:23;;;;;;;;;;;20.40;40.70;;;;;;489864;241;1043;-47
2021/11/19 08:55:24;;;;;;;;;;;20.40;40.70;;;;;;489918;240;1368;-47
2021/11/19 08:57:25;;;;;;;;;;;20.40;40.80;;;;;;489810;241;1252;-46
2021/11/19 08:59:28;;;;;;;;;;;20.40;40.80;;;;;;489807;241;1121;-47
2021/11/19 09:01:28;;;;;;;;;;;20.40;40.80;;;;;;489735;240;2356;-47
2021/11/19 09:03:29;;;;;;;;;;;20.40;40.90;;;;;;489769;240;1096;-47
2021/11/19 09:05:31;;;;;;;;;;;20.40;40.90;;;;;;489827;240;1232;-47
2021/11/19 09:07:34;;;;;;;;;;;20.40;40.80;;;;;;489895;241;2117;-47
2021/11/19 09:09:34;;;;;;;;;;;20.40;40.80;;;;;;490166;240;1399;-46
2021/11/19 09:11:35;;;;;;;;;;;20.40;40.80;;;;;;489879;241;1364;-47
2021/11/19 09:13:36;;;;;;;;;;;20.40;40.80;;;;;;489851;241;1124;-47
2021/11/19 09:15:38;;;;;;;;;;;20.50;40.60;;;;;;490043;240;1104;-47
2021/11/19 09:17:41;;;;;;;;;;;20.70;40.20;;;;;;489801;241;1216;-47
2021/11/19 09:19:40;;;;;;;;;;;21.00;39.80;;;;;;489786;240;2300;-47
2021/11/19 09:21:41;;;;;;;;;;;21.10;39.60;;;;;;489927;240;1276;-47
2021/11/19 09:23:43;;;;;;;;;;;21.20;39.40;;;;;;489979;240;1236;-47
2021/11/19 09:25:44;;;;;;;;;;;21.20;39.20;;;;;;490054;240;1202;-46
2021/11/19 09:27:46;;;;;;;;;;;21.30;39.10;;;;;;489811;240;2126;-47
2021/11/19 09:29:47;;;;;;;;;;;21.40;39.00;;;;;;489741;241;1130;-47
2021/11/19 09:31:48;;;;;;;;;;;21.40;38.80;;;;;;489653;240;1164;-47
2021/11/19 09:33:49;;;;;;;;;;;21.50;38.70;;;;;;489838;240;1249;-47
2021/11/19 09:35:51;;;;;;;;;;;21.50;38.70;;;;;;489729;240;1143;-47
2021/11/19 09:37:52;;;;;;;;;;;21.60;38.60;;;;;;490650;240;1182;-47
2021/11/19 09:39:53;;;;;;;;;;;21.60;38.50;;;;;;490241;240;1077;-47
2021/11/19 09:41:56;;;;;;;;;;;21.60;38.50;;;;;;489717;240;1579;-47
2021/11/19 09:43:56;;;;;;;;;;;21.70;38.40;;;;;;489819;241;2353;-47
2021/11/19 09:45:57;;;;;;;;;;;21.70;38.30;;;;;;489753;241;1313;-47
2021/11/19 09:47:59;;;;;;;;;;;21.70;38.20;;;;;;490002;241;2200;-47
2021/11/19 09:50:00;;;;;;;;;;;21.70;38.20;;;;;;490261;241;1218;-47
2021/11/19 09:52:01;;;;;;;;;;;21.70;38.10;;;;;;489990;241;1338;-47
2021/11/19 09:54:03;;;;;;;;;;;21.70;38.10;;;;;;489910;240;1186;-47
2021/11/19 09:56:06;;;;;;;;;;;21.80;38.10;;;;;;489873;241;1242;-47
2021/11/19 09:58:06;;;;;;;;;;;21.80;38.10;;;;;;489992;241;1797;-47
2021/11/19 10:00:07;;;;;;;;;;;21.80;37.90;;;;;;489898;240;1130;-47
2021/11/19 10:02:08;;;;;;;;;;;21.80;38.00;;;;;;489903;240;1226;-47
2021/11/19 10:04:09;;;;;;;;;;;21.90;37.90;;;;;;490735;240;1048;-47
2021/11/19 10:06:11;;;;;;;;;;;21.90;37.90;;;;;;490259;240;1241;-47
2021/11/19 10:08:12;;;;;;;;;;;21.90;37.80;;;;;;489906;240;2184;-47
2021/11/19 10:10:13;;;;;;;;;;;21.90;37.80;;;;;;489985;240;1071;-47
2021/11/19 10:12:15;;;;;;;;;;;21.90;37.80;;;;;;489946;241;1206;-47
2021/11/19 10:14:16;;;;;;;;;;;21.90;37.80;;;;;;489832;240;1069;-47
2021/11/19 10:16:17;;;;;;;;;;;21.90;37.70;;;;;;489655;241;1205;-46
2021/11/19 10:18:19;;;;;;;;;;;21.90;37.70;;;;;;489893;240;1225;-47
2021/11/19 10:20:20;;;;;;;;;;;21.90;37.70;;;;;;489737;240;1110;-46
2021/11/19 10:22:22;;;;;;;;;;;22.00;37.70;;;;;;489767;240;1165;-47
2021/11/19 10:24:23;;;;;;;;;;;22.00;37.70;;;;;;490160;240;1084;-47
2021/11/19 10:26:25;;;;;;;;;;;22.00;37.70;;;;;;489910;240;1070;-47
2021/11/19 10:28:25;;;;;;;;;;;22.00;37.60;;;;;;489746;241;2184;-47
2021/11/19 10:30:27;;;;;;;;;;;22.00;37.60;;;;;;489730;241;1095;-47
2021/11/19 10:32:28;;;;;;;;;;;22.00;37.60;;;;;;489739;241;1249;-47
2021/11/19 10:34:29;;;;;;;;;;;22.00;37.50;;;;;;489746;241;1051;-47
2021/11/19 10:36:31;;;;;;;;;;;22.00;37.50;;;;;;489770;241;1168;-47
2021/11/19 10:38:32;;;;;;;;;;;22.00;37.40;;;;;;489911;240;1097;-47
2021/11/19 10:40:33;;;;;;;;;;;22.10;37.50;;;;;;489836;240;1263;-47
2021/11/19 10:42:35;;;;;;;;;;;22.00;37.40;;;;;;490165;240;1262;-47
2021/11/19 10:44:36;;;;;;;;;;;22.10;37.40;;;;;;489966;241;1256;-47
2021/11/19 10:46:38;;;;;;;;;;;22.10;37.40;;;;;;490135;240;1227;-47
2021/11/19 10:48:39;;;;;;;;;;;22.10;37.40;;;;;;489694;241;2193;-47
2021/11/19 10:50:43;;;;;;;;;;;22.10;37.40;;;;;;489837;240;1128;-47
2021/11/19 10:52:42;;;;;;;;;;;22.10;37.40;;;;;;489906;241;2124;-47
2021/11/19 10:54:43;;;;;;;;;;;22.10;37.30;;;;;;490112;241;1043;-47
2021/11/19 10:56:45;;;;;;;;;;;22.10;37.20;;;;;;489977;240;1213;-47
2021/11/19 10:58:46;;;;;;;;;;;22.10;37.30;;;;;;490077;240;1168;-47
2021/11/19 11:00:47;;;;;;;;;;;22.10;37.20;;;;;;489944;240;1114;-47
2021/11/19 11:02:49;;;;;;;;;;;22.20;37.20;;;;;;489863;240;1199;-47
2021/11/19 11:04:53;;;;;;;;;;;22.20;37.20;;;;;;489744;240;1081;-47
2021/11/19 11:06:52;;;;;;;;;;;22.20;37.10;;;;;;489783;241;2070;-47
2021/11/19 11:08:53;;;;;;;;;;;22.20;37.10;;;;;;489887;241;2180;-47
2021/11/19 11:10:55;;;;;;;;;;;22.20;37.00;;;;;;489892;240;1328;-47
2021/11/19 11:12:56;;;;;;;;;;;22.20;37.00;;;;;;489868;240;1281;-47
2021/11/19 11:14:57;;;;;;;;;;;22.20;37.10;;;;;;490062;240;1046;-47
2021/11/19 11:16:59;;;;;;;;;;;22.20;37.00;;;;;;489801;241;1361;-47
2021/11/19 11:19:00;;;;;;;;;;;22.20;37.10;;;;;;489897;241;1227;-47
2021/11/19 11:21:02;;;;;;;;;;;22.30;37.10;;;;;;489986;240;1115;-47
2021/11/19 11:23:03;;;;;;;;;;;22.20;37.10;;;;;;489837;240;1116;-47
2021/11/19 11:25:04;;;;;;;;;;;22.30;37.00;;;;;;489934;241;1385;-47
2021/11/19 11:27:05;;;;;;;;;;;22.30;37.10;;;;;;489795;240;1306;-47
2021/11/19 11:29:07;;;;;;;;;;;22.20;37.10;;;;;;489956;240;2192;-47
2021/11/19 11:31:08;;;;;;;;;;;22.30;37.10;;;;;;489811;241;1173;-47
2021/11/19 11:33:10;;;;;;;;;;;22.20;37.00;;;;;;489993;240;1221;-47
2021/11/19 11:35:11;;;;;;;;;;;22.30;37.10;;;;;;490097;240;1081;-47
2021/11/19 11:37:12;;;;;;;;;;;22.30;37.00;;;;;;489786;240;1127;-47
2021/11/19 11:39:14;;;;;;;;;;;22.30;37.00;;;;;;489818;240;1070;-47
2021/11/19 11:41:15;;;;;;;;;;;22.30;37.00;;;;;;489817;240;1339;-47
2021/11/19 11:43:16;;;;;;;;;;;22.30;36.90;;;;;;489901;241;1192;-47
2021/11/19 11:45:17;;;;;;;;;;;22.30;36.90;;;;;;489913;240;1073;-47
2021/11/19 11:47:19;;;;;;;;;;;22.30;37.00;;;;;;489684;240;2196;-47
2021/11/19 11:49:20;;;;;;;;;;;22.30;36.90;;;;;;489774;240;1248;-47
2021/11/19 11:51:21;;;;;;;;;;;22.30;36.90;;;;;;489840;240;1221;-47
2021/11/19 11:53:23;;;;;;;;;;;22.30;36.90;;;;;;489979;240;1287;-48
2021/11/19 11:55:24;;;;;;;;;;;22.30;36.90;;;;;;490006;240;1195;-47
2021/11/19 11:57:26;;;;;;;;;;;22.30;36.80;;;;;;489895;240;1191;-47